createdAt,value
2022-07-27T00:01:12.935Z,59.21
2022-07-27T00:03:41.310Z,59.02
2022-07-27T00:06:09.609Z,59.24
2022-07-27T00:08:37.647Z,59.22
2022-07-27T00:11:07.072Z,59.09
2022-07-27T00:13:35.553Z,59.24
2022-07-27T00:16:03.926Z,59.30
2022-07-27T00:18:32.253Z,59.31
2022-07-27T00:21:00.612Z,59.32
2022-07-27T00:23:29.110Z,59.42
2022-07-27T00:25:58.453Z,59.35
2022-07-27T00:28:28.448Z,59.44
2022-07-27T00:30:57.155Z,59.31
2022-07-27T00:33:25.938Z,59.48
2022-07-27T00:35:54.333Z,59.51
2022-07-27T00:38:25.128Z,59.38
2022-07-27T00:40:54.956Z,59.71
2022-07-27T00:43:23.618Z,59.58
2022-07-27T00:45:52.935Z,59.62
2022-07-27T00:48:20.969Z,59.55
2022-07-27T00:50:49.047Z,59.37
2022-07-27T00:53:17.098Z,59.63
2022-07-27T00:55:46.076Z,59.77
2022-07-27T00:58:14.024Z,59.70
2022-07-27T01:00:41.977Z,59.68
2022-07-27T01:03:11.643Z,59.83
2022-07-27T01:05:42.675Z,59.85
2022-07-27T01:08:14.655Z,59.91
2022-07-27T01:10:43.583Z,60.02
2022-07-27T01:13:12.867Z,59.92
2022-07-27T01:15:44.183Z,59.79
2022-07-27T01:18:26.950Z,59.78
2022-07-27T01:20:55.520Z,60.05
2022-07-27T01:23:25.010Z,59.97
2022-07-27T01:25:53.018Z,59.87
2022-07-27T01:28:21.060Z,60.23
2022-07-27T01:30:49.200Z,60.10
2022-07-27T01:33:17.145Z,59.94
2022-07-27T01:35:45.293Z,59.85
2022-07-27T01:38:14.314Z,60.08
2022-07-27T01:40:44.597Z,60.19
2022-07-27T01:43:12.593Z,60.01
2022-07-27T01:45:40.455Z,60.09
2022-07-27T01:48:08.364Z,60.17
2022-07-27T01:50:36.524Z,60.37
2022-07-27T01:53:04.547Z,60.19
2022-07-27T01:55:39.096Z,60.18
2022-07-27T01:58:09.413Z,60.22
2022-07-27T02:00:37.810Z,60.38
2022-07-27T02:03:07.933Z,60.52
2022-07-27T02:05:36.585Z,60.48
2022-07-27T02:08:04.685Z,60.29
2022-07-27T02:10:33.292Z,60.61
2022-07-27T02:13:00.310Z,60.60
2022-07-27T02:15:38.882Z,60.56
2022-07-27T02:18:32.844Z,60.57
2022-07-27T02:20:59.683Z,60.55
2022-07-27T02:23:28.179Z,60.55
2022-07-27T02:25:56.187Z,60.62
2022-07-27T02:28:24.097Z,61.03
2022-07-27T02:30:53.486Z,60.90
2022-07-27T02:33:21.421Z,60.98
2022-07-27T02:35:50.716Z,61.03
2022-07-27T02:38:19.073Z,60.84
2022-07-27T02:40:46.942Z,60.85
2022-07-27T02:43:14.976Z,61.19
2022-07-27T02:45:42.877Z,61.18
2022-07-27T02:48:15.902Z,60.93
2022-07-27T02:50:43.935Z,60.93
2022-07-27T02:53:11.824Z,61.23
2022-07-27T02:55:39.654Z,61.08
2022-07-27T02:58:07.829Z,61.12
2022-07-27T03:00:35.582Z,61.22
2022-07-27T03:03:05.704Z,61.38
2022-07-27T03:05:35.022Z,61.32
2022-07-27T03:08:04.124Z,61.29
2022-07-27T03:10:32.373Z,61.27
2022-07-27T03:13:00.673Z,61.52
2022-07-27T03:15:29.970Z,61.29
2022-07-27T03:17:58.018Z,61.70
2022-07-27T03:20:26.196Z,61.65
2022-07-27T03:22:55.480Z,61.38
2022-07-27T03:25:23.496Z,61.59
2022-07-27T03:27:51.558Z,61.64
2022-07-27T03:30:19.395Z,61.72
2022-07-27T03:32:48.264Z,61.78
2022-07-27T03:35:16.417Z,61.96
2022-07-27T03:37:44.327Z,62.02
2022-07-27T03:40:13.855Z,61.98
2022-07-27T03:42:42.140Z,61.89
2022-07-27T03:45:10.982Z,62.10
2022-07-27T03:47:38.868Z,62.18
2022-07-27T03:50:07.776Z,61.87
2022-07-27T03:52:35.603Z,62.17
2022-07-27T03:55:03.953Z,62.23
2022-07-27T03:57:33.292Z,62.24
2022-07-27T04:00:01.098Z,62.05
2022-07-27T04:02:29.108Z,62.25
2022-07-27T04:04:57.459Z,62.44
2022-07-27T04:07:25.557Z,62.40
2022-07-27T04:09:53.349Z,62.21
2022-07-27T04:12:21.424Z,62.47
2022-07-27T04:14:51.100Z,62.52
2022-07-27T04:17:55.306Z,62.44
2022-07-27T04:20:09.356Z,62.37
2022-07-27T04:22:37.502Z,62.53
2022-07-27T04:25:05.914Z,62.76
2022-07-27T04:27:34.234Z,62.46
2022-07-27T04:30:08.298Z,62.55
2022-07-27T04:32:37.550Z,62.70
2022-07-27T04:35:07.214Z,62.70
2022-07-27T04:37:35.942Z,62.70
2022-07-27T04:40:04.362Z,62.64
2022-07-27T04:42:32.179Z,63.01
2022-07-27T04:45:00.693Z,63.04
2022-07-27T04:47:29.956Z,62.94
2022-07-27T04:49:57.916Z,63.01
2022-07-27T04:52:26.677Z,62.91
2022-07-27T04:54:55.857Z,63.14
2022-07-27T04:57:24.009Z,63.03
2022-07-27T04:59:51.888Z,63.27
2022-07-27T05:02:19.854Z,63.19
2022-07-27T05:04:49.210Z,63.11
2022-07-27T05:07:17.003Z,63.11
2022-07-27T05:09:45.102Z,63.24
2022-07-27T05:12:13.328Z,63.33
2022-07-27T05:14:41.565Z,63.54
2022-07-27T05:17:09.345Z,63.54
2022-07-27T05:19:39.991Z,63.46
2022-07-27T05:22:10.953Z,63.29
2022-07-27T05:24:39.085Z,63.64
2022-07-27T05:27:07.018Z,63.49
2022-07-27T05:29:35.274Z,63.65
2022-07-27T05:32:05.045Z,63.76
2022-07-27T05:34:34.269Z,63.63
2022-07-27T05:37:02.410Z,63.78
2022-07-27T05:39:31.666Z,63.90
2022-07-27T05:41:59.514Z,63.69
2022-07-27T05:44:27.573Z,63.87
2022-07-27T05:46:55.430Z,63.89
2022-07-27T05:49:23.279Z,63.90
2022-07-27T05:51:51.283Z,63.92
2022-07-27T05:54:19.554Z,63.98
2022-07-27T05:56:49.571Z,64.04
2022-07-27T05:59:17.490Z,64.03
2022-07-27T06:01:45.871Z,64.14
2022-07-27T06:04:14.657Z,64.17
2022-07-27T06:07:00.543Z,64.19
2022-07-27T06:09:29.358Z,64.13
2022-07-27T06:11:58.483Z,64.20
2022-07-27T06:14:26.337Z,64.33
2022-07-27T06:16:54.929Z,64.44
2022-07-27T06:19:22.775Z,64.41
2022-07-27T06:21:53.816Z,64.56
2022-07-27T06:24:22.155Z,64.58
2022-07-27T06:26:49.947Z,64.75
2022-07-27T06:29:19.203Z,64.63
2022-07-27T06:31:47.961Z,64.79
2022-07-27T06:34:15.901Z,64.89
2022-07-27T06:36:45.235Z,65.12
2022-07-27T06:39:13.733Z,65.14
2022-07-27T06:41:42.000Z,65.23
2022-07-27T06:44:09.766Z,65.18
2022-07-27T06:46:39.324Z,65.23
2022-07-27T06:49:07.268Z,65.45
2022-07-27T06:51:35.260Z,65.48
2022-07-27T06:54:05.594Z,65.50
2022-07-27T06:56:33.473Z,65.67
2022-07-27T06:59:01.384Z,65.51
2022-07-27T07:01:29.482Z,65.73
2022-07-27T07:03:59.845Z,65.93
2022-07-27T07:06:29.070Z,65.97
2022-07-27T07:08:57.001Z,65.76
2022-07-27T07:11:24.876Z,66.04
2022-07-27T07:13:53.230Z,65.85
2022-07-27T07:16:21.589Z,65.91
2022-07-27T07:18:52.433Z,66.04
2022-07-27T07:21:22.029Z,66.23
2022-07-27T07:23:50.251Z,66.17
2022-07-27T07:26:18.218Z,66.35
2022-07-27T07:28:46.425Z,66.28
2022-07-27T07:31:14.617Z,66.41
2022-07-27T07:33:42.533Z,66.59
2022-07-27T07:36:13.416Z,66.39
2022-07-27T07:38:44.335Z,66.47
2022-07-27T07:41:12.382Z,66.52
2022-07-27T07:43:42.087Z,66.31
2022-07-27T07:46:09.984Z,66.47
2022-07-27T07:48:39.643Z,66.38
2022-07-27T07:51:08.009Z,66.36
2022-07-27T07:53:41.118Z,66.46
2022-07-27T07:56:11.136Z,66.39
2022-07-27T07:58:39.110Z,66.45
2022-07-27T08:01:08.786Z,66.37
2022-07-27T08:03:37.346Z,66.41
2022-07-27T08:06:06.491Z,66.24
2022-07-27T08:08:34.343Z,66.38
2022-07-27T08:11:02.613Z,66.36
2022-07-27T08:13:32.486Z,66.41
2022-07-27T08:16:00.541Z,66.42
2022-07-27T08:18:29.143Z,66.39
2022-07-27T08:20:57.384Z,66.44
2022-07-27T08:23:26.837Z,66.50
2022-07-27T08:25:55.519Z,66.49
2022-07-27T08:28:23.589Z,66.44
2022-07-27T08:30:53.058Z,66.41
2022-07-27T08:33:21.274Z,66.57
2022-07-27T08:35:49.251Z,66.55
2022-07-27T08:38:17.024Z,66.54
2022-07-27T08:40:46.471Z,66.41
2022-07-27T08:43:23.755Z,66.66
2022-07-27T08:45:59.101Z,66.49
2022-07-27T08:48:28.378Z,66.68
2022-07-27T08:50:56.323Z,66.45
2022-07-27T08:53:25.199Z,66.52
2022-07-27T08:55:53.184Z,66.57
2022-07-27T08:58:21.091Z,66.57
2022-07-27T09:00:51.081Z,66.77
2022-07-27T09:03:22.846Z,66.66
2022-07-27T09:05:53.112Z,66.63
2022-07-27T09:08:24.869Z,66.77
2022-07-27T09:10:55.547Z,66.73
2022-07-27T09:13:27.120Z,66.62
2022-07-27T09:18:46.713Z,66.85
2022-07-27T09:21:17.170Z,66.66
2022-07-27T09:23:48.969Z,66.80
2022-07-27T09:26:36.029Z,66.85
2022-07-27T09:29:06.763Z,66.78
2022-07-27T09:31:42.770Z,66.76
2022-07-27T09:34:13.943Z,66.66
2022-07-27T09:36:53.580Z,66.71
2022-07-27T09:39:22.743Z,66.70
2022-07-27T09:41:52.176Z,66.74
2022-07-27T09:44:42.615Z,66.51
2022-07-27T09:47:26.580Z,66.59
2022-07-27T09:49:58.613Z,66.57
2022-07-27T09:52:29.593Z,66.91
2022-07-27T09:55:04.915Z,66.95
2022-07-27T09:57:32.749Z,66.49
2022-07-27T10:00:12.010Z,66.70
2022-07-27T10:02:41.351Z,66.60
2022-07-27T10:05:11.718Z,66.51
2022-07-27T10:07:41.313Z,66.27
2022-07-27T10:10:10.556Z,66.20
2022-07-27T10:12:40.222Z,66.21
2022-07-27T10:15:10.111Z,65.94
2022-07-27T10:17:40.684Z,66.12
2022-07-27T10:20:12.693Z,65.96
2022-07-27T10:22:51.603Z,65.90
2022-07-27T10:25:20.409Z,65.88
2022-07-27T10:27:50.137Z,65.85
2022-07-27T10:30:23.990Z,65.88
2022-07-27T10:32:55.534Z,65.84
2022-07-27T10:35:35.927Z,65.62
2022-07-27T10:38:15.518Z,65.58
2022-07-27T10:40:44.209Z,65.59
2022-07-27T10:43:20.278Z,65.34
2022-07-27T10:46:01.934Z,65.33
2022-07-27T10:48:42.747Z,65.44
2022-07-27T10:51:18.078Z,65.25
2022-07-27T10:56:49.146Z,65.11
2022-07-27T11:00:08.339Z,64.97
2022-07-27T11:02:41.947Z,65.25
2022-07-27T11:06:31.442Z,64.90
2022-07-27T11:08:35.509Z,64.88
2022-07-27T11:10:51.641Z,64.87
2022-07-27T11:13:22.097Z,64.75
2022-07-27T11:15:59.923Z,64.41
2022-07-27T11:18:39.172Z,64.49
2022-07-27T11:21:25.401Z,64.49
2022-07-27T11:23:57.051Z,64.47
2022-07-27T11:26:27.019Z,64.38
2022-07-27T11:28:54.927Z,64.20
2022-07-27T11:31:45.156Z,64.21
2022-07-27T11:34:14.188Z,64.16
2022-07-27T11:36:44.813Z,64.09
2022-07-27T11:39:28.584Z,63.92
2022-07-27T11:42:09.055Z,63.88
2022-07-27T11:44:44.916Z,63.92
2022-07-27T11:47:17.552Z,63.78
2022-07-27T11:49:45.574Z,63.83
2022-07-27T11:52:13.509Z,63.72
2022-07-27T11:54:43.075Z,63.55
2022-07-27T11:57:13.967Z,63.50
2022-07-27T11:59:43.321Z,63.44
2022-07-27T12:02:13.654Z,63.43
2022-07-27T12:04:43.009Z,63.43
2022-07-27T12:07:14.139Z,63.11
2022-07-27T12:09:47.879Z,63.26
2022-07-27T12:12:17.287Z,63.19
2022-07-27T12:14:48.002Z,63.15
2022-07-27T12:17:21.917Z,63.19
2022-07-27T12:19:56.174Z,63.02
2022-07-27T12:22:27.484Z,63.07
2022-07-27T12:24:57.480Z,62.97
2022-07-27T12:27:26.274Z,62.80
2022-07-27T12:30:10.712Z,62.85
2022-07-27T12:32:41.824Z,62.85
2022-07-27T12:35:23.366Z,62.59
2022-07-27T12:37:58.447Z,62.82
2022-07-27T12:40:28.379Z,62.70
2022-07-27T12:42:58.742Z,62.70
2022-07-27T12:45:33.211Z,62.58
2022-07-27T12:48:09.402Z,62.48
2022-07-27T12:50:37.446Z,62.49
2022-07-27T12:53:05.891Z,62.46
2022-07-27T12:55:35.286Z,62.38
2022-07-27T12:58:04.037Z,62.41
2022-07-27T13:00:34.398Z,62.21
2022-07-27T13:03:03.668Z,62.27
2022-07-27T13:05:33.188Z,62.20
2022-07-27T13:08:02.389Z,62.15
2022-07-27T13:10:30.301Z,61.97
2022-07-27T13:13:00.207Z,62.04
2022-07-27T13:15:28.131Z,61.99
2022-07-27T13:17:56.438Z,61.88
2022-07-27T13:20:24.827Z,61.82
2022-07-27T13:22:53.085Z,61.78
2022-07-27T13:25:21.550Z,61.75
2022-07-27T13:27:50.295Z,61.80
2022-07-27T13:30:21.073Z,61.76
2022-07-27T13:32:49.012Z,61.71
2022-07-27T13:35:17.688Z,61.70
2022-07-27T13:37:45.807Z,61.80
2022-07-27T13:40:15.265Z,61.58
2022-07-27T13:42:43.682Z,61.62
2022-07-27T13:45:12.397Z,61.50
2022-07-27T13:47:43.117Z,61.53
2022-07-27T13:50:19.033Z,61.57
2022-07-27T13:52:48.880Z,61.37
2022-07-27T13:55:17.751Z,61.28
2022-07-27T13:57:46.594Z,61.28
2022-07-27T14:00:15.410Z,61.33
2022-07-27T14:02:45.442Z,61.24
2022-07-27T14:05:15.792Z,61.05
2022-07-27T14:07:44.705Z,61.01
2022-07-27T14:10:30.902Z,60.93
2022-07-27T14:13:07.923Z,60.94
2022-07-27T14:15:50.331Z,60.90
2022-07-27T14:18:25.534Z,60.82
2022-07-27T14:20:54.305Z,60.73
2022-07-27T14:23:22.214Z,60.64
2022-07-27T14:25:50.441Z,60.47
2022-07-27T14:28:18.478Z,60.72
2022-07-27T14:30:46.437Z,60.63
2022-07-27T14:33:14.427Z,60.51
2022-07-27T14:35:43.809Z,60.58
2022-07-27T14:38:12.086Z,60.61
2022-07-27T14:40:40.930Z,60.44
2022-07-27T14:43:10.924Z,60.48
2022-07-27T14:45:45.547Z,60.54
2022-07-27T14:48:21.506Z,60.47
2022-07-27T14:50:57.832Z,60.47
2022-07-27T14:53:25.805Z,60.35
2022-07-27T14:55:53.696Z,60.48
2022-07-27T14:58:21.896Z,60.37
2022-07-27T15:00:50.130Z,60.20
2022-07-27T15:03:19.773Z,60.28
2022-07-27T15:05:50.915Z,60.41
2022-07-27T15:08:20.796Z,60.25
2022-07-27T15:10:49.172Z,60.37
2022-07-27T15:13:18.016Z,60.28
2022-07-27T15:15:48.411Z,60.14
2022-07-27T15:18:18.969Z,60.41
2022-07-27T15:20:47.349Z,60.22
2022-07-27T15:23:15.182Z,60.20
2022-07-27T15:25:44.619Z,60.33
2022-07-27T15:28:12.808Z,60.15
2022-07-27T15:30:40.993Z,60.13
2022-07-27T15:33:09.001Z,60.25
2022-07-27T15:35:37.006Z,60.10
2022-07-27T15:38:05.374Z,60.19
2022-07-27T15:40:41.825Z,60.16
2022-07-27T15:43:14.436Z,60.14
2022-07-27T15:45:44.058Z,60.14
2022-07-27T15:48:13.669Z,60.10
2022-07-27T15:50:44.372Z,60.13
2022-07-27T15:53:14.268Z,60.12
2022-07-27T15:55:43.617Z,60.15
2022-07-27T15:58:17.980Z,60.23
2022-07-27T16:00:46.851Z,60.15
2022-07-27T16:03:15.028Z,60.19
2022-07-27T16:05:44.715Z,60.18
2022-07-27T16:08:12.510Z,60.02
2022-07-27T16:10:42.365Z,60.09
2022-07-27T16:13:14.180Z,60.01
2022-07-27T16:16:01.308Z,60.05
2022-07-27T16:18:29.691Z,60.09
2022-07-27T16:20:57.608Z,60.02
2022-07-27T16:23:25.878Z,59.92
2022-07-27T16:26:05.803Z,59.70
2022-07-27T16:28:38.913Z,59.81
2022-07-27T16:31:08.270Z,59.77
2022-07-27T16:33:36.104Z,59.69
2022-07-27T16:36:06.044Z,59.60
2022-07-27T16:38:36.710Z,59.71
2022-07-27T16:41:07.592Z,59.79
2022-07-27T16:43:38.903Z,59.77
2022-07-27T16:46:08.893Z,59.49
2022-07-27T16:48:42.303Z,59.90
2022-07-27T16:51:12.932Z,59.67
2022-07-27T16:53:42.570Z,59.39
2022-07-27T16:56:11.978Z,59.58
2022-07-27T16:58:41.498Z,59.29
2022-07-27T17:01:10.397Z,59.57
2022-07-27T17:03:50.289Z,59.46
2022-07-27T17:06:19.470Z,59.37
2022-07-27T17:08:47.636Z,59.49
2022-07-27T17:11:20.807Z,59.52
2022-07-27T17:13:57.692Z,59.60
2022-07-27T17:16:28.613Z,59.32
2022-07-27T17:18:56.695Z,59.41
2022-07-27T17:21:24.929Z,59.57
2022-07-27T17:23:52.917Z,59.32
2022-07-27T17:26:22.716Z,59.37
2022-07-27T17:28:54.907Z,59.40
2022-07-27T17:31:23.347Z,59.34
2022-07-27T17:33:52.485Z,59.33
2022-07-27T17:36:22.296Z,59.32
2022-07-27T17:38:51.354Z,59.43
2022-07-27T17:41:24.475Z,59.40
2022-07-27T17:43:55.372Z,59.32
2022-07-27T17:46:26.657Z,59.37
2022-07-27T17:48:55.236Z,59.47
2022-07-27T17:51:25.487Z,59.35
2022-07-27T17:53:53.656Z,59.42
2022-07-27T17:56:21.587Z,59.56
2022-07-27T17:58:49.543Z,59.62
2022-07-27T18:01:31.876Z,59.55
2022-07-27T18:04:07.287Z,59.43
2022-07-27T18:06:35.683Z,59.56
2022-07-27T18:09:04.230Z,59.47
2022-07-27T18:11:32.343Z,59.54
2022-07-27T18:14:00.262Z,59.57
2022-07-27T18:16:31.877Z,59.53
2022-07-27T18:19:03.107Z,59.68
2022-07-27T18:21:30.974Z,59.55
2022-07-27T18:23:58.850Z,59.62
2022-07-27T18:26:27.081Z,59.72
2022-07-27T18:28:56.099Z,59.68
2022-07-27T18:31:24.400Z,59.54
2022-07-27T18:33:54.533Z,59.63
2022-07-27T18:36:22.702Z,59.51
2022-07-27T18:38:50.881Z,59.67
2022-07-27T18:41:19.269Z,59.73
2022-07-27T18:43:52.006Z,59.69
2022-07-27T18:46:21.436Z,59.69
2022-07-27T18:48:49.999Z,59.62
2022-07-27T18:51:19.486Z,59.34
2022-07-27T18:53:48.882Z,59.69
2022-07-27T18:56:16.884Z,59.59
2022-07-27T18:58:44.991Z,59.43
2022-07-27T19:01:13.113Z,59.40
2022-07-27T19:03:43.441Z,59.64
2022-07-27T19:06:11.793Z,59.58
2022-07-27T19:08:47.470Z,59.30
2022-07-27T19:11:15.773Z,59.31
2022-07-27T19:13:45.609Z,59.67
2022-07-27T19:16:14.240Z,59.19
2022-07-27T19:18:42.066Z,59.55
2022-07-27T19:21:10.557Z,59.19
2022-07-27T19:23:38.529Z,59.73
2022-07-27T19:26:08.959Z,59.31
2022-07-27T19:28:38.029Z,59.35
2022-07-27T19:31:06.839Z,59.68
2022-07-27T19:33:52.142Z,59.81
2022-07-27T19:36:20.679Z,59.59
2022-07-27T19:38:48.520Z,59.66
2022-07-27T19:41:17.741Z,59.51
2022-07-27T19:43:46.050Z,59.41
2022-07-27T19:46:14.061Z,59.39
2022-07-27T19:48:42.019Z,59.70
2022-07-27T19:51:11.009Z,59.73
2022-07-27T19:53:41.043Z,59.67
2022-07-27T19:56:12.416Z,59.79
2022-07-27T19:58:41.683Z,59.60
2022-07-27T20:01:11.429Z,59.57
2022-07-27T20:03:52.650Z,59.59
2022-07-27T20:06:23.551Z,59.76
2022-07-27T20:08:51.654Z,59.70
2022-07-27T20:11:19.457Z,59.69
2022-07-27T20:13:48.719Z,59.67
2022-07-27T20:16:18.084Z,59.70
2022-07-27T20:18:46.074Z,59.79
2022-07-27T20:21:22.756Z,59.86
2022-07-27T20:23:52.229Z,59.94
2022-07-27T20:26:20.289Z,59.99
2022-07-27T20:28:50.106Z,59.90
2022-07-27T20:31:18.343Z,59.96
2022-07-27T20:33:46.237Z,59.76
2022-07-27T20:36:14.126Z,59.95
2022-07-27T20:38:42.306Z,59.76
2022-07-27T20:41:10.194Z,60.24
2022-07-27T20:43:37.976Z,60.12
2022-07-27T20:46:07.938Z,60.16
2022-07-27T20:48:36.076Z,60.27
2022-07-27T20:51:03.964Z,60.35
2022-07-27T20:53:31.978Z,60.38
2022-07-27T20:55:59.866Z,60.10
2022-07-27T20:58:27.639Z,60.28
2022-07-27T21:00:56.077Z,60.13
2022-07-27T21:03:25.465Z,60.62
2022-07-27T21:05:53.859Z,60.41
2022-07-27T21:08:22.119Z,60.10
2022-07-27T21:10:49.946Z,60.48
2022-07-27T21:13:19.328Z,60.27
2022-07-27T21:15:47.126Z,60.81
2022-07-27T21:18:15.154Z,60.54
2022-07-27T21:20:44.692Z,60.80
2022-07-27T21:23:30.045Z,60.83
2022-07-27T21:25:58.063Z,60.64
2022-07-27T21:28:26.316Z,61.02
2022-07-27T21:30:54.134Z,61.21
2022-07-27T21:33:22.550Z,60.57
2022-07-27T21:35:52.087Z,61.28
2022-07-27T21:38:19.942Z,61.08
2022-07-27T21:40:48.233Z,61.33
2022-07-27T21:43:16.112Z,60.74
2022-07-27T21:45:47.882Z,61.53
2022-07-27T21:48:18.913Z,61.30
2022-07-27T21:50:46.812Z,61.51
2022-07-27T21:53:15.997Z,61.01
2022-07-27T21:55:44.036Z,61.35
2022-07-27T21:58:12.863Z,61.52
2022-07-27T22:00:40.765Z,61.53
2022-07-27T22:03:09.297Z,61.21
2022-07-27T22:05:37.224Z,61.61
2022-07-27T22:08:05.577Z,61.91
2022-07-27T22:10:35.204Z,61.43
2022-07-27T22:13:03.658Z,61.56
2022-07-27T22:15:31.653Z,62.08
2022-07-27T22:17:59.700Z,62.04
2022-07-27T22:20:27.588Z,61.79
2022-07-27T22:22:55.402Z,62.09
2022-07-27T22:28:10.067Z,62.12
2022-07-27T22:30:40.092Z,62.07
2022-07-27T22:33:08.103Z,61.81
2022-07-27T22:35:36.619Z,62.75
2022-07-27T22:38:04.591Z,62.82
2022-07-27T22:40:32.559Z,62.84
2022-07-27T22:43:00.784Z,62.25
2022-07-27T22:45:30.381Z,62.68
2022-07-27T22:47:59.551Z,62.56
2022-07-27T22:50:27.669Z,63.11
2022-07-27T22:52:55.490Z,62.83
2022-07-27T22:55:23.292Z,62.84
2022-07-27T22:57:51.317Z,62.61
2022-07-27T23:00:19.707Z,63.53
2022-07-27T23:02:49.125Z,62.45
2022-07-27T23:05:17.337Z,62.78
2022-07-27T23:07:45.267Z,63.03
2022-07-27T23:10:30.718Z,63.42
2022-07-27T23:12:58.761Z,63.67
2022-07-27T23:15:26.701Z,63.42
2022-07-27T23:17:56.235Z,63.74
2022-07-27T23:20:24.752Z,63.76
2022-07-27T23:22:53.724Z,63.73
2022-07-27T23:25:22.497Z,63.53
2022-07-27T23:27:50.263Z,63.21
2022-07-27T23:30:18.190Z,64.01
2022-07-27T23:32:46.256Z,63.43
2022-07-27T23:35:15.553Z,63.79
2022-07-27T23:37:44.510Z,63.92
2022-07-27T23:40:13.365Z,64.09
2022-07-27T23:42:41.230Z,64.15
2022-07-27T23:45:09.531Z,64.45
2022-07-27T23:47:37.829Z,64.21
2022-07-27T23:50:07.018Z,64.74
2022-07-27T23:52:36.437Z,64.52
2022-07-27T23:55:05.645Z,64.60
2022-07-27T23:57:33.666Z,64.70
